Time;durP1;ratioP1;P1;durP2;ratioP2;P2;SDS_P1;SDS_P2;PMS_P1;PMS_P2;Temp;Humidity;BMP_temperature;BMP_pressure;BME280_temperature;BME280_humidity;BME280_pressure;Samples;Min_cycle;Max_cycle;Signal;HPM_P1;HPM_P2
2023/09/21 00:01:03;;;;;;;2.05;1.20;;;;;;;;;;5055300;28;20040;-61
2023/09/21 00:03:29;;;;;;;0.80;0.80;;;;;;;;;;5054558;28;20126;-62
2023/09/21 00:05:56;;;;;;;1.38;1.13;;;;;;;;;;5056302;28;20072;-61
2023/09/21 00:08:25;;;;;;;1.40;1.20;;;;;;;;;;5055113;28;20040;-61
2023/09/21 00:10:52;;;;;;;1.67;1.40;;;;;;;;;;5057147;28;20044;-61
2023/09/21 00:13:26;;;;;;;1.98;1.02;;;;;;;;;;5058293;28;20068;-62
2023/09/21 00:15:53;;;;;;;1.73;1.27;;;;;;;;;;5057061;28;20067;-62
2023/09/21 00:18:22;;;;;;;1.27;1.17;;;;;;;;;;5052218;28;20102;-62
2023/09/21 00:20:54;;;;;;;1.60;1.20;;;;;;;;;;5055660;28;20076;-62
2023/09/21 00:23:21;;;;;;;2.63;1.45;;;;;;;;;;5054878;28;20770;-62
2023/09/21 00:25:47;;;;;;;2.53;1.15;;;;;;;;;;5051393;28;20089;-62
2023/09/21 00:28:14;;;;;;;4.10;1.25;;;;;;;;;;5050631;28;20041;-61
2023/09/21 00:30:40;;;;;;;2.25;0.98;;;;;;;;;;5053665;28;20049;-61
2023/09/21 00:33:07;;;;;;;2.50;1.23;;;;;;;;;;5050707;28;20052;-61
2023/09/21 00:35:33;;;;;;;0.90;0.90;;;;;;;;;;5050549;28;20041;-61
2023/09/21 00:38:01;;;;;;;1.48;1.05;;;;;;;;;;5052647;28;20037;-61
2023/09/21 00:40:27;;;;;;;1.55;1.00;;;;;;;;;;5052037;28;20052;-62
2023/09/21 00:42:53;;;;;;;1.38;1.20;;;;;;;;;;5052121;28;20630;-61
2023/09/21 00:45:22;;;;;;;1.45;1.30;;;;;;;;;;5052234;28;20093;-61
2023/09/21 00:47:52;;;;;;;1.65;1.45;;;;;;;;;;5053664;28;20649;-62
2023/09/21 00:50:21;;;;;;;2.30;1.30;;;;;;;;;;5055454;28;20044;-61
2023/09/21 00:52:47;;;;;;;1.30;1.20;;;;;;;;;;5056369;28;20071;-62
2023/09/21 00:55:16;;;;;;;1.13;1.02;;;;;;;;;;5054857;28;20072;-62
2023/09/21 00:57:42;;;;;;;2.10;1.48;;;;;;;;;;5053284;28;20128;-61
2023/09/21 01:00:13;;;;;;;3.38;1.45;;;;;;;;;;5052330;28;20488;-62
2023/09/21 01:02:46;;;;;;;2.10;1.55;;;;;;;;;;5050913;28;20549;-62
2023/09/21 01:05:17;;;;;;;1.88;1.00;;;;;;;;;;5056206;28;20055;-61
2023/09/21 01:07:44;;;;;;;1.90;1.35;;;;;;;;;;5050732;28;20044;-61
2023/09/21 01:10:11;;;;;;;1.70;1.30;;;;;;;;;;5054564;28;20040;-62
2023/09/21 01:12:38;;;;;;;1.40;1.30;;;;;;;;;;5053747;28;20556;-62
2023/09/21 01:15:05;;;;;;;1.80;1.30;;;;;;;;;;5051586;28;20051;-62
2023/09/21 01:17:32;;;;;;;2.30;1.45;;;;;;;;;;5050987;28;20061;-62
2023/09/21 01:19:58;;;;;;;1.45;0.90;;;;;;;;;;5053779;28;20083;-61
2023/09/21 01:22:27;;;;;;;1.73;1.10;;;;;;;;;;5051810;28;20068;-62
2023/09/21 01:24:53;;;;;;;1.10;1.00;;;;;;;;;;5054277;28;20370;-62
2023/09/21 01:27:20;;;;;;;1.40;1.08;;;;;;;;;;5050893;28;20068;-62
2023/09/21 01:29:46;;;;;;;1.08;0.98;;;;;;;;;;5054794;28;20654;-61
2023/09/21 01:32:12;;;;;;;1.73;1.52;;;;;;;;;;5055554;28;20079;-61
2023/09/21 01:34:38;;;;;;;1.38;1.20;;;;;;;;;;5056031;28;20075;-62
2023/09/21 01:37:05;;;;;;;3.35;1.63;;;;;;;;;;5058537;28;20072;-61
2023/09/21 01:39:31;;;;;;;1.50;1.40;;;;;;;;;;5053670;28;20082;-61
2023/09/21 01:41:57;;;;;;;1.75;1.30;;;;;;;;;;5056763;28;20440;-62
2023/09/21 01:44:23;;;;;;;2.58;1.30;;;;;;;;;;5053317;28;20048;-61
2023/09/21 01:46:52;;;;;;;1.92;1.30;;;;;;;;;;5055541;28;20075;-61
2023/09/21 01:49:18;;;;;;;3.38;1.30;;;;;;;;;;5057692;28;20119;-61
2023/09/21 01:51:44;;;;;;;2.13;1.55;;;;;;;;;;5058268;28;20037;-61
2023/09/21 01:54:11;;;;;;;1.73;1.30;;;;;;;;;;5059227;28;20501;-62
2023/09/21 01:56:37;;;;;;;2.60;1.67;;;;;;;;;;5054828;28;20056;-62
2023/09/21 01:59:03;;;;;;;0.90;0.90;;;;;;;;;;5053829;28;20057;-62
2023/09/21 02:01:29;;;;;;;1.38;1.27;;;;;;;;;;5054773;28;20048;-61
2023/09/21 02:03:56;;;;;;;1.70;1.15;;;;;;;;;;5054307;28;20047;-62
2023/09/21 02:06:22;;;;;;;1.45;1.23;;;;;;;;;;5054531;28;20037;-62
2023/09/21 02:08:49;;;;;;;1.25;1.15;;;;;;;;;;5055012;28;20449;-62
2023/09/21 02:11:15;;;;;;;2.92;1.40;;;;;;;;;;5059949;28;20068;-62
2023/09/21 02:13:41;;;;;;;1.52;1.42;;;;;;;;;;5053623;28;20036;-61
2023/09/21 02:16:08;;;;;;;1.40;1.08;;;;;;;;;;5059327;28;20958;-61
2023/09/21 02:18:34;;;;;;;2.75;1.52;;;;;;;;;;5053207;28;20102;-61
2023/09/21 02:21:00;;;;;;;2.08;1.52;;;;;;;;;;5054932;28;20073;-61
2023/09/21 02:23:26;;;;;;;2.25;1.50;;;;;;;;;;5050352;28;20555;-62
2023/09/21 02:25:53;;;;;;;2.35;1.40;;;;;;;;;;5053645;28;20642;-62
2023/09/21 02:28:19;;;;;;;1.40;1.25;;;;;;;;;;5053874;28;20129;-62
2023/09/21 02:30:48;;;;;;;1.65;1.17;;;;;;;;;;5049450;28;20072;-62
2023/09/21 02:33:18;;;;;;;1.65;1.02;;;;;;;;;;5055220;28;20073;-62
2023/09/21 02:35:46;;;;;;;1.90;1.52;;;;;;;;;;5050977;28;20098;-62
2023/09/21 02:38:12;;;;;;;1.75;1.30;;;;;;;;;;5052123;28;20139;-62
2023/09/21 02:40:39;;;;;;;1.65;1.30;;;;;;;;;;5053575;28;20037;-62
2023/09/21 02:43:09;;;;;;;1.30;1.10;;;;;;;;;;5054098;28;20049;-62
2023/09/21 02:45:36;;;;;;;2.15;1.50;;;;;;;;;;5056537;28;20090;-62
2023/09/21 02:48:03;;;;;;;1.50;1.40;;;;;;;;;;5053948;28;20523;-62
2023/09/21 02:50:30;;;;;;;2.70;1.42;;;;;;;;;;5057635;28;20044;-62
2023/09/21 02:52:56;;;;;;;2.03;1.38;;;;;;;;;;5055701;28;20098;-61
2023/09/21 02:55:23;;;;;;;3.08;1.33;;;;;;;;;;5054544;28;20057;-62
2023/09/21 02:57:55;;;;;;;1.63;1.30;;;;;;;;;;5055895;28;20059;-62
2023/09/21 03:00:21;;;;;;;3.67;1.23;;;;;;;;;;5048944;28;20058;-62
2023/09/21 03:02:49;;;;;;;1.50;0.95;;;;;;;;;;5055897;28;20044;-62
2023/09/21 03:05:16;;;;;;;1.10;1.00;;;;;;;;;;5051058;28;20082;-62
2023/09/21 03:07:43;;;;;;;1.52;1.02;;;;;;;;;;5058465;28;20044;-62
2023/09/21 03:10:10;;;;;;;1.13;0.98;;;;;;;;;;5052423;28;20052;-62
2023/09/21 03:12:39;;;;;;;1.30;1.00;;;;;;;;;;5058301;28;20045;-62
2023/09/21 03:15:13;;;;;;;1.40;1.30;;;;;;;;;;5060230;28;20037;-61
2023/09/21 03:17:40;;;;;;;1.30;1.20;;;;;;;;;;5057673;28;20112;-62
2023/09/21 03:20:10;;;;;;;1.25;1.15;;;;;;;;;;5055365;28;20049;-62
2023/09/21 03:22:37;;;;;;;2.20;1.50;;;;;;;;;;5056369;28;20068;-62
2023/09/21 03:25:03;;;;;;;1.35;1.25;;;;;;;;;;5054184;28;20041;-62
2023/09/21 03:27:30;;;;;;;1.35;1.02;;;;;;;;;;5053647;28;20370;-61
2023/09/21 03:29:56;;;;;;;1.27;1.08;;;;;;;;;;5052006;28;20086;-61
2023/09/21 03:32:25;;;;;;;1.20;1.10;;;;;;;;;;5048840;28;20040;-62
2023/09/21 03:34:51;;;;;;;1.48;1.10;;;;;;;;;;5054880;28;20048;-62
2023/09/21 03:37:19;;;;;;;1.88;1.00;;;;;;;;;;5054159;28;20543;-62
2023/09/21 03:39:45;;;;;;;1.10;1.00;;;;;;;;;;5056978;28;20040;-62
2023/09/21 03:42:11;;;;;;;1.00;0.90;;;;;;;;;;5053095;28;20508;-61
2023/09/21 03:44:37;;;;;;;2.10;1.10;;;;;;;;;;5053061;28;20041;-61
2023/09/21 03:47:04;;;;;;;3.72;1.52;;;;;;;;;;5056439;28;20453;-62
2023/09/21 03:49:34;;;;;;;1.67;1.42;;;;;;;;;;5054249;28;20045;-61
2023/09/21 03:52:00;;;;;;;2.05;1.42;;;;;;;;;;5054258;28;20059;-61
2023/09/21 03:54:26;;;;;;;1.25;1.05;;;;;;;;;;5052723;28;20094;-61
2023/09/21 03:56:52;;;;;;;1.38;1.20;;;;;;;;;;5056721;28;20775;-61
2023/09/21 03:59:18;;;;;;;1.48;1.13;;;;;;;;;;5052691;28;20115;-61
2023/09/21 04:01:46;;;;;;;3.70;1.67;;;;;;;;;;5056128;28;20512;-61
2023/09/21 04:04:17;;;;;;;1.33;1.00;;;;;;;;;;5051618;28;20044;-61
2023/09/21 04:06:44;;;;;;;2.35;1.50;;;;;;;;;;5052569;28;20043;-62
2023/09/21 04:09:10;;;;;;;2.22;1.52;;;;;;;;;;5051429;28;20844;-61
2023/09/21 04:11:36;;;;;;;1.48;1.27;;;;;;;;;;5054641;28;20036;-61
2023/09/21 04:14:03;;;;;;;2.60;1.48;;;;;;;;;;5053952;28;20536;-62
2023/09/21 04:16:29;;;;;;;1.85;1.40;;;;;;;;;;5056938;28;20048;-62
2023/09/21 04:18:55;;;;;;;3.13;1.40;;;;;;;;;;5054572;28;20131;-61
2023/09/21 04:21:23;;;;;;;1.88;1.10;;;;;;;;;;5051602;28;20120;-61
2023/09/21 04:23:49;;;;;;;1.10;1.00;;;;;;;;;;5050470;28;20051;-62
2023/09/21 04:26:16;;;;;;;1.30;1.20;;;;;;;;;;5049492;28;20408;-62
2023/09/21 04:28:42;;;;;;;2.20;1.25;;;;;;;;;;5051176;28;20066;-62
2023/09/21 04:31:09;;;;;;;2.35;1.27;;;;;;;;;;5052962;28;20048;-61
2023/09/21 04:33:35;;;;;;;1.67;1.35;;;;;;;;;;5051077;28;20051;-61
2023/09/21 04:36:01;;;;;;;1.20;1.10;;;;;;;;;;5049217;28;20062;-62
2023/09/21 04:38:27;;;;;;;1.75;1.23;;;;;;;;;;5054756;28;20722;-61
2023/09/21 04:40:53;;;;;;;1.70;1.10;;;;;;;;;;5055266;28;20041;-61
2023/09/21 04:43:20;;;;;;;1.65;1.55;;;;;;;;;;5048141;28;20132;-61
2023/09/21 04:45:50;;;;;;;1.70;0.90;;;;;;;;;;5054769;28;20079;-61
2023/09/21 04:48:16;;;;;;;1.33;1.08;;;;;;;;;;5050775;28;20526;-61
2023/09/21 04:50:42;;;;;;;1.35;1.20;;;;;;;;;;5045705;28;20091;-61
2023/09/21 04:53:08;;;;;;;1.30;0.90;;;;;;;;;;5046014;28;20045;-61
2023/09/21 04:55:36;;;;;;;2.15;1.13;;;;;;;;;;5044983;28;20170;-61
2023/09/21 04:58:02;;;;;;;0.77;0.77;;;;;;;;;;5045811;28;20041;-61
2023/09/21 05:00:29;;;;;;;2.08;1.10;;;;;;;;;;5045689;28;20131;-61
2023/09/21 05:02:55;;;;;;;1.38;0.95;;;;;;;;;;5044896;28;20052;-61
2023/09/21 05:05:24;;;;;;;1.30;1.20;;;;;;;;;;5045456;28;20128;-61
2023/09/21 05:07:50;;;;;;;0.90;0.82;;;;;;;;;;5045527;28;20571;-61
2023/09/21 05:10:16;;;;;;;1.10;1.00;;;;;;;;;;5045764;28;20489;-61
2023/09/21 05:12:43;;;;;;;1.02;0.93;;;;;;;;;;5055315;28;20047;-61
2023/09/21 05:15:13;;;;;;;2.13;1.33;;;;;;;;;;5045276;28;20043;-61
2023/09/21 05:17:40;;;;;;;1.70;1.10;;;;;;;;;;5044271;28;20044;-61
2023/09/21 05:20:06;;;;;;;1.33;0.98;;;;;;;;;;5045436;28;20040;-61
2023/09/21 05:22:33;;;;;;;0.93;0.82;;;;;;;;;;5045405;28;20453;-61
2023/09/21 05:25:00;;;;;;;0.80;0.80;;;;;;;;;;5044881;28;20075;-61
2023/09/21 05:27:29;;;;;;;0.95;0.90;;;;;;;;;;5045268;28;20088;-61
2023/09/21 05:29:55;;;;;;;0.90;0.90;;;;;;;;;;5044680;28;20048;-61
2023/09/21 05:32:21;;;;;;;1.05;0.93;;;;;;;;;;5047096;28;20044;-61
2023/09/21 05:34:47;;;;;;;0.82;0.80;;;;;;;;;;5051888;28;20071;-62
2023/09/21 05:37:14;;;;;;;1.13;0.90;;;;;;;;;;5048439;28;20045;-61
2023/09/21 05:39:40;;;;;;;1.20;0.90;;;;;;;;;;5045656;28;20037;-61
2023/09/21 05:42:06;;;;;;;0.80;0.80;;;;;;;;;;5045458;28;20037;-61
2023/09/21 05:44:32;;;;;;;0.80;0.80;;;;;;;;;;5044618;28;20111;-61
2023/09/21 05:46:58;;;;;;;1.45;0.93;;;;;;;;;;5045106;28;20041;-61
2023/09/21 05:49:27;;;;;;;0.70;0.70;;;;;;;;;;5054106;28;20051;-61
2023/09/21 05:51:53;;;;;;;1.17;1.08;;;;;;;;;;5044423;28;20116;-61
2023/09/21 05:54:23;;;;;;;1.83;1.10;;;;;;;;;;5045377;28;20091;-61
2023/09/21 05:56:56;;;;;;;1.63;0.90;;;;;;;;;;5045712;28;20095;-61
2023/09/21 05:59:24;;;;;;;1.20;1.00;;;;;;;;;;5043000;28;20045;-61
2023/09/21 06:01:50;;;;;;;1.05;1.00;;;;;;;;;;5036390;28;20045;-61
2023/09/21 06:04:17;;;;;;;0.98;0.90;;;;;;;;;;5038906;28;20045;-61
2023/09/21 06:06:46;;;;;;;1.38;0.90;;;;;;;;;;5040462;28;20381;-61
2023/09/21 06:09:18;;;;;;;1.10;1.00;;;;;;;;;;5040972;28;20041;-61
2023/09/21 06:11:44;;;;;;;1.08;0.98;;;;;;;;;;5041311;28;20677;-61
2023/09/21 06:14:11;;;;;;;2.47;1.00;;;;;;;;;;5041017;28;20397;-61
2023/09/21 06:16:37;;;;;;;1.13;1.00;;;;;;;;;;5042438;28;20060;-61
2023/09/21 06:19:03;;;;;;;0.70;0.70;;;;;;;;;;5040448;28;20045;-61
2023/09/21 06:21:30;;;;;;;1.05;0.95;;;;;;;;;;5045975;28;20048;-61
2023/09/21 06:23:57;;;;;;;1.20;0.88;;;;;;;;;;5043180;28;20084;-61
2023/09/21 06:26:23;;;;;;;1.15;1.05;;;;;;;;;;5042627;28;20056;-61
2023/09/21 06:28:50;;;;;;;1.13;1.00;;;;;;;;;;5044495;28;20040;-61
2023/09/21 06:31:18;;;;;;;1.20;0.85;;;;;;;;;;5044629;28;20619;-61
2023/09/21 06:33:44;;;;;;;1.23;0.90;;;;;;;;;;5045151;28;20433;-61
2023/09/21 06:36:18;;;;;;;0.95;0.80;;;;;;;;;;5045939;28;20049;-61
2023/09/21 06:38:45;;;;;;;1.70;1.17;;;;;;;;;;5038729;28;20052;-61
2023/09/21 06:41:11;;;;;;;1.00;0.88;;;;;;;;;;5037255;28;20042;-61
2023/09/21 06:43:38;;;;;;;2.47;1.15;;;;;;;;;;5037708;28;20123;-61
2023/09/21 06:46:05;;;;;;;1.27;1.13;;;;;;;;;;5048525;28;20083;-61
2023/09/21 06:48:31;;;;;;;1.40;1.30;;;;;;;;;;5044392;28;20493;-61
2023/09/21 06:50:57;;;;;;;2.63;1.10;;;;;;;;;;5041201;28;20052;-61
2023/09/21 06:53:24;;;;;;;1.00;0.95;;;;;;;;;;5046741;28;20116;-61
2023/09/21 06:55:50;;;;;;;1.45;1.10;;;;;;;;;;5040844;28;20073;-61
2023/09/21 06:58:16;;;;;;;1.92;1.13;;;;;;;;;;5045343;28;20049;-61
2023/09/21 07:00:42;;;;;;;1.63;1.10;;;;;;;;;;5046630;28;20792;-61
2023/09/21 07:03:09;;;;;;;1.13;0.90;;;;;;;;;;5038727;28;20043;-61
2023/09/21 07:05:35;;;;;;;1.15;1.05;;;;;;;;;;5045632;28;20045;-61
2023/09/21 07:08:01;;;;;;;1.30;0.90;;;;;;;;;;5047124;28;20135;-61
2023/09/21 07:10:28;;;;;;;1.75;0.95;;;;;;;;;;5046108;28;20128;-61
2023/09/21 07:12:54;;;;;;;1.05;0.82;;;;;;;;;;5042160;28;20041;-61
2023/09/21 07:15:21;;;;;;;1.73;1.35;;;;;;;;;;5047418;28;20421;-61
2023/09/21 07:17:47;;;;;;;0.70;0.70;;;;;;;;;;5047021;28;20040;-61
2023/09/21 07:20:16;;;;;;;2.25;1.20;;;;;;;;;;5051667;28;20059;-61
2023/09/21 07:22:42;;;;;;;1.20;1.00;;;;;;;;;;5045584;28;20045;-59
2023/09/21 07:25:09;;;;;;;1.10;0.90;;;;;;;;;;5048752;28;20041;-60
2023/09/21 07:27:35;;;;;;;1.00;0.90;;;;;;;;;;5051977;28;20511;-61
2023/09/21 07:30:02;;;;;;;1.30;0.95;;;;;;;;;;5047065;28;20580;-59
2023/09/21 07:32:28;;;;;;;0.80;0.80;;;;;;;;;;5048189;28;20041;-62
2023/09/21 07:34:54;;;;;;;0.60;0.60;;;;;;;;;;5051720;28;20056;-60
2023/09/21 07:37:21;;;;;;;1.10;1.00;;;;;;;;;;5043291;28;20087;-61
2023/09/21 07:39:47;;;;;;;0.73;0.70;;;;;;;;;;5045917;28;20049;-60
2023/09/21 07:42:13;;;;;;;1.20;1.00;;;;;;;;;;5039931;28;20120;-60
2023/09/21 07:44:44;;;;;;;1.23;0.90;;;;;;;;;;5034066;28;20120;-60
2023/09/21 07:47:10;;;;;;;0.90;0.90;;;;;;;;;;5042552;28;20040;-60
2023/09/21 07:49:36;;;;;;;1.60;1.10;;;;;;;;;;5047766;28;20041;-60
2023/09/21 07:52:02;;;;;;;0.90;0.80;;;;;;;;;;5041335;28;20775;-60
2023/09/21 07:54:29;;;;;;;0.60;0.60;;;;;;;;;;5045258;28;20047;-60
2023/09/21 07:56:56;;;;;;;1.15;0.93;;;;;;;;;;5041506;28;20049;-60
2023/09/21 07:59:22;;;;;;;1.02;0.98;;;;;;;;;;5042561;28;20051;-61
2023/09/21 08:01:53;;;;;;;0.80;0.77;;;;;;;;;;5042761;28;20298;-60
2023/09/21 08:04:20;;;;;;;1.15;1.02;;;;;;;;;;5050794;28;20489;-60
2023/09/21 08:06:46;;;;;;;1.90;0.98;;;;;;;;;;5046188;28;20049;-60
2023/09/21 08:09:14;;;;;;;1.17;1.08;;;;;;;;;;5043105;28;20400;-60
2023/09/21 08:11:41;;;;;;;3.22;1.70;;;;;;;;;;5042844;28;20045;-60
2023/09/21 08:14:07;;;;;;;1.60;1.42;;;;;;;;;;5045972;28;20381;-60
2023/09/21 08:16:35;;;;;;;1.67;1.55;;;;;;;;;;5043307;28;20045;-60
2023/09/21 08:19:01;;;;;;;1.50;1.30;;;;;;;;;;5045064;28;20041;-61
2023/09/21 08:21:27;;;;;;;1.25;1.10;;;;;;;;;;5045224;28;20036;-60
2023/09/21 08:23:53;;;;;;;1.65;1.30;;;;;;;;;;5045339;28;20043;-60
2023/09/21 08:26:19;;;;;;;1.25;1.02;;;;;;;;;;5043765;28;20052;-59
2023/09/21 08:28:47;;;;;;;1.17;0.80;;;;;;;;;;5046182;28;20052;-60
2023/09/21 08:31:13;;;;;;;0.77;0.57;;;;;;;;;;5045486;28;20041;-60
2023/09/21 08:33:39;;;;;;;0.43;0.43;;;;;;;;;;5038908;28;20045;-60
2023/09/21 08:36:08;;;;;;;0.40;0.40;;;;;;;;;;5044171;28;20052;-60
2023/09/21 08:38:34;;;;;;;0.57;0.57;;;;;;;;;;5044205;28;20033;-60
2023/09/21 08:41:00;;;;;;;0.30;0.30;;;;;;;;;;5042730;28;20072;-60
2023/09/21 08:43:27;;;;;;;0.17;0.17;;;;;;;;;;5036781;28;20041;-60
2023/09/21 08:45:53;;;;;;;0.32;0.20;;;;;;;;;;5035903;28;20041;-61
2023/09/21 08:48:23;;;;;;;0.20;0.20;;;;;;;;;;5036310;28;20045;-60
2023/09/21 08:50:50;;;;;;;0.10;0.10;;;;;;;;;;5036199;28;20382;-61
2023/09/21 08:53:21;;;;;;;0.10;0.10;;;;;;;;;;5031975;28;20049;-60
2023/09/21 08:55:52;;;;;;;0.30;0.15;;;;;;;;;;5034941;28;20582;-60
2023/09/21 08:58:24;;;;;;;0.10;0.03;;;;;;;;;;5029408;28;20064;-60
2023/09/21 09:00:53;;;;;;;0.20;0.20;;;;;;;;;;5031830;28;20048;-60
2023/09/21 09:03:21;;;;;;;0.22;0.10;;;;;;;;;;5034079;28;20049;-60
2023/09/21 09:05:48;;;;;;;0.10;0.10;;;;;;;;;;5038488;28;20551;-60
2023/09/21 09:08:14;;;;;;;0.28;0.28;;;;;;;;;;5047954;28;20139;-60
2023/09/21 09:10:41;;;;;;;0.10;0.10;;;;;;;;;;5045085;28;20471;-60
2023/09/21 09:13:07;;;;;;;0.10;0.10;;;;;;;;;;5043190;28;20039;-60
2023/09/21 09:15:34;;;;;;;0.40;0.20;;;;;;;;;;5041663;28;20051;-60
2023/09/21 09:18:03;;;;;;;0.35;0.20;;;;;;;;;;5042627;28;20056;-60
2023/09/21 09:20:33;;;;;;;0.10;0.10;;;;;;;;;;5044258;28;20501;-60
2023/09/21 09:23:02;;;;;;;0.20;0.10;;;;;;;;;;5043654;28;20044;-60
2023/09/21 09:25:28;;;;;;;0.35;0.15;;;;;;;;;;5043935;28;20166;-60
2023/09/21 09:27:54;;;;;;;0.25;0.10;;;;;;;;;;5044323;28;20043;-60
2023/09/21 09:30:22;;;;;;;0.13;0.13;;;;;;;;;;5042609;28;20374;-61
2023/09/21 09:32:51;;;;;;;0.20;0.13;;;;;;;;;;5044559;28;20041;-60
2023/09/21 09:35:17;;;;;;;0.10;0.10;;;;;;;;;;5044905;28;20037;-60
2023/09/21 09:37:44;;;;;;;0.10;0.10;;;;;;;;;;5044728;28;20092;-60
2023/09/21 09:40:14;;;;;;;0.30;0.20;;;;;;;;;;5045134;28;20045;-60
2023/09/21 09:42:41;;;;;;;0.40;0.28;;;;;;;;;;5045279;28;20045;-61
2023/09/21 09:45:11;;;;;;;0.22;0.20;;;;;;;;;;5044557;28;20044;-60
2023/09/21 09:47:38;;;;;;;0.10;0.10;;;;;;;;;;5045242;28;20118;-60
2023/09/21 09:50:06;;;;;;;0.25;0.20;;;;;;;;;;5045274;28;20565;-60
2023/09/21 09:52:33;;;;;;;0.22;0.22;;;;;;;;;;5048774;28;20052;-60
2023/09/21 09:54:59;;;;;;;0.10;0.10;;;;;;;;;;5048862;28;20053;-60
2023/09/21 09:57:26;;;;;;;0.20;0.20;;;;;;;;;;5048121;28;20129;-60
2023/09/21 09:59:53;;;;;;;0.32;0.10;;;;;;;;;;5049286;28;20171;-61
2023/09/21 10:02:20;;;;;;;0.25;0.15;;;;;;;;;;5048649;28;20128;-61
2023/09/21 10:04:47;;;;;;;0.17;0.17;;;;;;;;;;5051110;28;20091;-61
2023/09/21 10:07:16;;;;;;;0.22;0.10;;;;;;;;;;5055988;28;20053;-60
2023/09/21 10:09:43;;;;;;;0.28;0.17;;;;;;;;;;5047243;28;20052;-61
2023/09/21 10:12:09;;;;;;;0.00;0.00;;;;;;;;;;5052130;28;20121;-60
2023/09/21 10:14:42;;;;;;;0.05;0.05;;;;;;;;;;5047036;28;20098;-60
2023/09/21 10:17:10;;;;;;;0.15;0.15;;;;;;;;;;5047010;28;20152;-61
2023/09/21 10:19:39;;;;;;;0.00;0.00;;;;;;;;;;5047230;28;20041;-62
2023/09/21 10:22:25;;;;;;;0.10;0.10;;;;;;;;;;5054304;28;20064;-61
2023/09/21 10:24:53;;;;;;;1.45;0.30;;;;;;;;;;5051795;28;20052;-61
2023/09/21 10:27:21;;;;;;;0.10;0.10;;;;;;;;;;5048035;28;20428;-61
2023/09/21 10:29:51;;;;;;;0.20;0.20;;;;;;;;;;5048235;28;20033;-61
2023/09/21 10:32:23;;;;;;;0.28;0.13;;;;;;;;;;5052477;28;20072;-61
2023/09/21 10:34:50;;;;;;;0.15;0.15;;;;;;;;;;5048250;28;20048;-61
2023/09/21 10:37:25;;;;;;;0.10;0.10;;;;;;;;;;5047297;28;20443;-61
2023/09/21 10:39:57;;;;;;;0.20;0.20;;;;;;;;;;5043007;28;20052;-61
2023/09/21 10:42:33;;;;;;;0.28;0.28;;;;;;;;;;5048496;28;20112;-61
2023/09/21 10:45:00;;;;;;;0.20;0.20;;;;;;;;;;5051978;28;20436;-61
2023/09/21 10:47:29;;;;;;;0.10;0.10;;;;;;;;;;5044961;28;20524;-61
2023/09/21 10:49:56;;;;;;;0.15;0.13;;;;;;;;;;5047999;28;20074;-61
2023/09/21 10:52:23;;;;;;;0.10;0.10;;;;;;;;;;5048255;28;20053;-61
2023/09/21 10:54:51;;;;;;;0.10;0.10;;;;;;;;;;5047615;28;20525;-61
2023/09/21 10:57:21;;;;;;;0.20;0.20;;;;;;;;;;5047230;28;20112;-61
2023/09/21 10:59:49;;;;;;;0.20;0.20;;;;;;;;;;5047775;28;20598;-61
2023/09/21 11:02:15;;;;;;;0.20;0.10;;;;;;;;;;5048049;28;20481;-61
2023/09/21 11:04:41;;;;;;;0.20;0.20;;;;;;;;;;5051937;28;20127;-63
2023/09/21 11:07:08;;;;;;;0.10;0.10;;;;;;;;;;5047464;28;20087;-61
2023/09/21 11:09:35;;;;;;;0.10;0.10;;;;;;;;;;5046791;28;20455;-61
2023/09/21 11:12:01;;;;;;;0.10;0.10;;;;;;;;;;5047765;28;20048;-61
2023/09/21 11:14:27;;;;;;;0.32;0.20;;;;;;;;;;5042217;28;20393;-61
2023/09/21 11:16:53;;;;;;;0.13;0.10;;;;;;;;;;5039833;28;20076;-61
2023/09/21 11:19:19;;;;;;;0.20;0.20;;;;;;;;;;5044799;28;20477;-61
2023/09/21 11:21:45;;;;;;;0.20;0.10;;;;;;;;;;5046426;28;20040;-61
2023/09/21 11:24:11;;;;;;;0.10;0.10;;;;;;;;;;5047293;28;20041;-61
2023/09/21 11:26:45;;;;;;;0.10;0.10;;;;;;;;;;5047163;28;20048;-61
2023/09/21 11:29:11;;;;;;;0.10;0.10;;;;;;;;;;5046709;28;20052;-61
2023/09/21 11:31:37;;;;;;;0.20;0.20;;;;;;;;;;5046104;28;20037;-61
2023/09/21 11:34:07;;;;;;;0.10;0.10;;;;;;;;;;5045982;28;20089;-61
2023/09/21 11:36:33;;;;;;;0.13;0.10;;;;;;;;;;5045185;28;20083;-61
2023/09/21 11:38:59;;;;;;;0.30;0.20;;;;;;;;;;5045728;28;20060;-61
2023/09/21 11:41:25;;;;;;;0.20;0.20;;;;;;;;;;5046128;28;20475;-61
2023/09/21 11:43:52;;;;;;;0.55;0.30;;;;;;;;;;5045889;28;20128;-61
2023/09/21 11:46:19;;;;;;;0.13;0.10;;;;;;;;;;5046244;28;20045;-61
2023/09/21 11:48:48;;;;;;;0.20;0.20;;;;;;;;;;5046738;28;20052;-61
2023/09/21 11:51:14;;;;;;;0.10;0.10;;;;;;;;;;5046034;28;20690;-61
2023/09/21 11:53:40;;;;;;;0.40;0.25;;;;;;;;;;5046810;28;20041;-60
2023/09/21 11:56:07;;;;;;;0.77;0.25;;;;;;;;;;5046872;28;20060;-61
2023/09/21 11:58:33;;;;;;;0.10;0.10;;;;;;;;;;5046136;28;20056;-61
2023/09/21 12:03:36;;;;;;;0.10;0.10;;;;;;;;;;5046340;28;20092;-61
2023/09/21 12:06:04;;;;;;;0.20;0.20;;;;;;;;;;5046381;28;20048;-61
2023/09/21 12:08:31;;;;;;;0.20;0.20;;;;;;;;;;5046384;28;20037;-61
2023/09/21 12:10:57;;;;;;;0.38;0.20;;;;;;;;;;5045892;28;20048;-61
2023/09/21 12:13:24;;;;;;;0.68;0.32;;;;;;;;;;5044934;28;20110;-61
2023/09/21 12:15:56;;;;;;;0.13;0.13;;;;;;;;;;5047135;28;20146;-62
2023/09/21 12:18:22;;;;;;;0.20;0.20;;;;;;;;;;5046101;28;20083;-61
2023/09/21 12:20:57;;;;;;;0.20;0.20;;;;;;;;;;5046298;28;20044;-61
2023/09/21 12:23:25;;;;;;;0.22;0.22;;;;;;;;;;5046608;28;20045;-61
2023/09/21 12:25:51;;;;;;;0.10;0.10;;;;;;;;;;5046002;28;20546;-61
2023/09/21 12:28:19;;;;;;;0.30;0.20;;;;;;;;;;5046013;28;20040;-61
2023/09/21 12:30:47;;;;;;;0.20;0.20;;;;;;;;;;5046052;28;20076;-60
2023/09/21 12:33:15;;;;;;;0.30;0.28;;;;;;;;;;5045523;28;20116;-61
2023/09/21 12:35:41;;;;;;;0.20;0.13;;;;;;;;;;5045845;28;20036;-61
2023/09/21 12:38:07;;;;;;;0.20;0.20;;;;;;;;;;5045831;28;20045;-61
2023/09/21 12:40:33;;;;;;;0.30;0.30;;;;;;;;;;5045004;28;20052;-61
2023/09/21 12:42:59;;;;;;;0.10;0.10;;;;;;;;;;5045942;28;20040;-61
2023/09/21 12:45:25;;;;;;;0.13;0.13;;;;;;;;;;5045700;28;20037;-60
2023/09/21 12:47:51;;;;;;;0.22;0.20;;;;;;;;;;5045768;28;20055;-61
2023/09/21 12:50:17;;;;;;;0.10;0.10;;;;;;;;;;5046255;28;20794;-61
2023/09/21 12:52:43;;;;;;;0.10;0.10;;;;;;;;;;5046014;28;20082;-62
2023/09/21 12:55:10;;;;;;;0.20;0.10;;;;;;;;;;5045122;28;20136;-61
2023/09/21 12:57:37;;;;;;;0.15;0.13;;;;;;;;;;5045495;28;20057;-61
2023/09/21 13:00:22;;;;;;;0.20;0.10;;;;;;;;;;5044713;28;20044;-61
2023/09/21 13:02:48;;;;;;;0.00;0.00;;;;;;;;;;5038045;28;20087;-61
2023/09/21 13:05:15;;;;;;;0.00;0.00;;;;;;;;;;5045720;28;20037;-61
2023/09/21 13:07:41;;;;;;;0.40;0.10;;;;;;;;;;5044869;28;20044;-61
2023/09/21 13:10:08;;;;;;;0.00;0.00;;;;;;;;;;5045580;28;20063;-61
2023/09/21 13:12:35;;;;;;;0.30;0.10;;;;;;;;;;5045328;28;20048;-61
2023/09/21 13:15:01;;;;;;;0.00;0.00;;;;;;;;;;5044968;28;20151;-61
2023/09/21 13:17:27;;;;;;;0.00;0.00;;;;;;;;;;5045375;28;20473;-61
2023/09/21 13:19:54;;;;;;;0.10;0.10;;;;;;;;;;5045937;28;20044;-61
2023/09/21 13:22:21;;;;;;;0.10;0.10;;;;;;;;;;5045176;28;20051;-61
2023/09/21 13:24:47;;;;;;;0.08;0.00;;;;;;;;;;5045825;28;20072;-61
2023/09/21 13:27:13;;;;;;;0.10;0.10;;;;;;;;;;5049395;28;20045;-61
2023/09/21 13:29:40;;;;;;;0.08;0.08;;;;;;;;;;5048958;28;20572;-61
2023/09/21 13:32:07;;;;;;;0.03;0.03;;;;;;;;;;5049822;28;20048;-61
2023/09/21 13:34:33;;;;;;;0.20;0.10;;;;;;;;;;5049433;28;20036;-61
2023/09/21 13:36:59;;;;;;;0.10;0.10;;;;;;;;;;5048805;28;20041;-61
2023/09/21 13:39:26;;;;;;;0.43;0.22;;;;;;;;;;5049395;28;20167;-61
2023/09/21 13:41:53;;;;;;;0.15;0.13;;;;;;;;;;5049755;28;20072;-61
2023/09/21 13:44:20;;;;;;;0.68;0.20;;;;;;;;;;5048545;28;20045;-61
2023/09/21 13:46:46;;;;;;;0.30;0.30;;;;;;;;;;5049345;28;20179;-61
2023/09/21 13:49:12;;;;;;;0.28;0.20;;;;;;;;;;5048694;28;20041;-62
2023/09/21 13:51:40;;;;;;;0.65;0.20;;;;;;;;;;5049542;28;20129;-61
2023/09/21 13:54:06;;;;;;;0.20;0.20;;;;;;;;;;5049215;28;20049;-61
2023/09/21 13:56:32;;;;;;;0.20;0.20;;;;;;;;;;5048047;28;20128;-61
2023/09/21 13:58:58;;;;;;;0.25;0.20;;;;;;;;;;5049050;28;20041;-61
2023/09/21 14:01:26;;;;;;;0.30;0.30;;;;;;;;;;5049354;28;20033;-61
2023/09/21 14:03:52;;;;;;;0.90;0.35;;;;;;;;;;5048987;28;20045;-61
2023/09/21 14:06:21;;;;;;;0.30;0.30;;;;;;;;;;5048913;28;20045;-61
2023/09/21 14:08:47;;;;;;;0.10;0.10;;;;;;;;;;5048732;28;20052;-61
2023/09/21 14:11:13;;;;;;;0.75;0.30;;;;;;;;;;5048340;28;20083;-61
2023/09/21 14:13:40;;;;;;;0.55;0.40;;;;;;;;;;5048745;28;20040;-61
2023/09/21 14:16:06;;;;;;;0.10;0.10;;;;;;;;;;5048626;28;20052;-61
2023/09/21 14:18:32;;;;;;;0.20;0.20;;;;;;;;;;5047999;28;20047;-61
2023/09/21 14:20:58;;;;;;;0.60;0.60;;;;;;;;;;5048364;28;20041;-61
2023/09/21 14:23:25;;;;;;;0.68;0.40;;;;;;;;;;5049185;28;20116;-61
2023/09/21 14:25:50;;;;;;;0.10;0.10;;;;;;;;;;5048154;28;20052;-61
2023/09/21 14:28:17;;;;;;;0.30;0.17;;;;;;;;;;5048375;28;20126;-61
2023/09/21 14:30:42;;;;;;;0.13;0.13;;;;;;;;;;5048459;28;20076;-61
2023/09/21 14:33:08;;;;;;;0.20;0.10;;;;;;;;;;5047607;28;20079;-61
2023/09/21 14:35:35;;;;;;;0.20;0.20;;;;;;;;;;5048055;28;20108;-62
2023/09/21 14:38:01;;;;;;;0.10;0.10;;;;;;;;;;5046970;28;20061;-61
2023/09/21 14:40:30;;;;;;;0.40;0.30;;;;;;;;;;5047686;28;20043;-61
2023/09/21 14:42:56;;;;;;;0.30;0.30;;;;;;;;;;5048742;28;20127;-62
2023/09/21 14:45:22;;;;;;;0.35;0.25;;;;;;;;;;5047900;28;20043;-61